createdAt,value
2018-02-03T00:00:03.710Z,64.60
2018-02-03T00:02:31.301Z,64.00
2018-02-03T00:04:58.867Z,64.00
2018-02-03T00:07:26.468Z,64.60
2018-02-03T00:09:54.025Z,64.30
2018-02-03T00:12:21.666Z,64.40
2018-02-03T00:14:49.225Z,65.00
2018-02-03T00:17:16.800Z,64.50
2018-02-03T00:19:45.128Z,64.40
2018-02-03T00:22:13.468Z,64.60
2018-02-03T00:24:41.030Z,64.60
2018-02-03T00:27:08.618Z,65.00
2018-02-03T00:29:36.953Z,64.80
2018-02-03T00:32:04.536Z,64.80
2018-02-03T00:34:32.099Z,64.50
2018-02-03T00:36:59.678Z,64.30
2018-02-03T00:39:27.241Z,64.40
2018-02-03T00:41:54.824Z,64.10
2018-02-03T00:44:22.385Z,64.70
2018-02-03T00:46:49.982Z,64.20
2018-02-03T00:49:17.550Z,64.20
2018-02-03T00:51:45.112Z,63.50
2018-02-03T00:54:12.714Z,64.00
2018-02-03T00:56:40.579Z,64.60
2018-02-03T00:59:08.163Z,64.70
2018-02-03T01:01:35.720Z,64.40
2018-02-03T01:04:03.494Z,64.60
2018-02-03T01:06:31.052Z,64.70
2018-02-03T01:08:58.633Z,64.90
2018-02-03T01:11:26.189Z,64.90
2018-02-03T01:13:53.774Z,64.80
2018-02-03T01:16:21.340Z,64.90
2018-02-03T01:18:48.913Z,64.90
2018-02-03T01:21:16.469Z,64.90
2018-02-03T01:23:44.045Z,65.10
2018-02-03T01:26:11.609Z,65.60
2018-02-03T01:28:39.185Z,65.80
2018-02-03T01:31:08.248Z,66.50
2018-02-03T01:33:35.832Z,65.90
2018-02-03T01:36:03.397Z,65.80
2018-02-03T01:38:30.985Z,66.00
2018-02-03T01:40:59.307Z,66.30
2018-02-03T01:43:26.886Z,66.20
2018-02-03T01:45:54.486Z,66.50
2018-02-03T01:48:22.069Z,66.50
2018-02-03T01:50:49.634Z,66.30
2018-02-03T01:53:17.230Z,66.00
2018-02-03T01:55:44.787Z,66.40
2018-02-03T01:58:12.384Z,66.80
2018-02-03T02:00:39.953Z,66.60
2018-02-03T02:03:07.514Z,66.50
2018-02-03T02:05:35.090Z,66.60
2018-02-03T02:08:02.656Z,66.50
2018-02-03T02:10:30.241Z,66.40
2018-02-03T02:12:57.796Z,66.70
2018-02-03T02:15:25.372Z,66.50
2018-02-03T02:17:53.862Z,66.90
2018-02-03T02:20:21.444Z,66.80
2018-02-03T02:22:49.008Z,66.70
2018-02-03T02:25:16.687Z,66.70
2018-02-03T02:27:44.250Z,67.10
2018-02-03T02:30:11.829Z,67.20
2018-02-03T02:32:39.397Z,66.70
2018-02-03T02:35:06.980Z,67.00
2018-02-03T02:37:34.557Z,67.20
2018-02-03T02:40:02.140Z,67.30
2018-02-03T02:42:29.693Z,67.00
2018-02-03T02:44:57.269Z,67.10
2018-02-03T02:47:24.836Z,67.10
2018-02-03T02:49:52.417Z,67.30
2018-02-03T02:52:19.976Z,67.70
2018-02-03T02:54:47.553Z,67.20
2018-02-03T02:57:15.118Z,67.10
2018-02-03T02:59:43.465Z,67.00
2018-02-03T03:02:11.026Z,67.00
2018-02-03T03:04:38.617Z,66.80
2018-02-03T03:07:06.175Z,66.80
2018-02-03T03:09:34.544Z,66.80
2018-02-03T03:12:02.865Z,67.20
2018-02-03T03:14:30.461Z,67.10
2018-02-03T03:16:58.024Z,66.80
2018-02-03T03:19:25.588Z,66.70
2018-02-03T03:21:53.179Z,66.90
2018-02-03T03:24:20.741Z,66.90
2018-02-03T03:26:48.324Z,67.10
2018-02-03T03:29:15.889Z,67.20
2018-02-03T03:31:43.472Z,67.60
2018-02-03T03:34:11.051Z,67.20
2018-02-03T03:36:38.649Z,67.10
2018-02-03T03:39:06.225Z,67.20
2018-02-03T03:41:33.809Z,67.20
2018-02-03T03:44:01.376Z,67.30
2018-02-03T03:46:28.965Z,67.20
2018-02-03T03:48:56.539Z,67.10
2018-02-03T03:51:24.134Z,67.50
2018-02-03T03:53:51.701Z,67.20
2018-02-03T03:56:19.288Z,67.30
2018-02-03T03:58:47.625Z,67.70
2018-02-03T04:01:15.220Z,67.70
2018-02-03T04:03:42.800Z,67.60
2018-02-03T04:06:10.379Z,67.60
2018-02-03T04:08:37.946Z,67.70
2018-02-03T04:11:05.529Z,67.70
2018-02-03T04:13:33.088Z,67.50
2018-02-03T04:16:00.677Z,67.60
2018-02-03T04:18:28.232Z,67.50
2018-02-03T04:20:56.595Z,67.70
2018-02-03T04:23:24.165Z,67.60
2018-02-03T04:25:51.761Z,67.70
2018-02-03T04:28:19.328Z,67.60
2018-02-03T04:30:46.885Z,67.80
2018-02-03T04:33:14.476Z,68.10
2018-02-03T04:35:42.041Z,68.50
2018-02-03T04:38:09.662Z,67.90
2018-02-03T04:40:37.220Z,67.90
2018-02-03T04:43:04.803Z,67.80
2018-02-03T04:45:33.133Z,68.00
2018-02-03T04:48:00.720Z,68.00
2018-02-03T04:50:28.281Z,67.90
2018-02-03T04:52:55.865Z,67.90
2018-02-03T04:55:24.940Z,67.90
2018-02-03T04:57:52.522Z,67.80
2018-02-03T05:00:20.134Z,68.00
2018-02-03T05:02:47.764Z,67.50
2018-02-03T05:05:16.098Z,68.10
2018-02-03T05:07:43.696Z,68.00
2018-02-03T05:10:11.264Z,67.50
2018-02-03T05:12:39.617Z,68.00
2018-02-03T05:15:07.179Z,68.00
2018-02-03T05:17:34.770Z,67.90
2018-02-03T05:20:03.096Z,68.60
2018-02-03T05:22:30.676Z,68.60
2018-02-03T05:24:58.248Z,68.60
2018-02-03T05:27:25.839Z,68.60
2018-02-03T05:29:53.398Z,68.30
2018-02-03T05:32:20.988Z,68.60
2018-02-03T05:34:48.548Z,68.50
2018-02-03T05:37:17.192Z,68.00
2018-02-03T05:39:45.604Z,68.40
2018-02-03T05:42:13.201Z,68.20
2018-02-03T05:47:44.469Z,68.20
2018-02-03T05:50:12.029Z,68.30
2018-02-03T05:52:40.381Z,69.40
2018-02-03T05:55:07.951Z,69.30
2018-02-03T05:57:35.537Z,69.00
2018-02-03T06:00:03.317Z,68.60
2018-02-03T06:02:30.904Z,68.70
2018-02-03T06:04:58.469Z,68.20
2018-02-03T06:07:26.833Z,69.50
2018-02-03T06:09:54.420Z,68.60
2018-02-03T06:12:21.989Z,68.40
2018-02-03T06:14:49.602Z,68.90
2018-02-03T06:17:17.165Z,68.60
2018-02-03T06:19:44.753Z,68.70
2018-02-03T06:22:12.312Z,69.00
2018-02-03T06:24:39.899Z,68.40
2018-02-03T06:27:07.465Z,68.40
2018-02-03T06:29:35.818Z,68.60
2018-02-03T06:32:03.384Z,68.50
2018-02-03T06:34:30.979Z,68.80
2018-02-03T06:36:58.541Z,68.80
2018-02-03T06:39:26.128Z,68.70
2018-02-03T06:41:53.685Z,68.50
2018-02-03T06:44:21.278Z,68.30
2018-02-03T06:46:48.837Z,68.10
2018-02-03T06:49:16.427Z,68.00
2018-02-03T06:51:43.995Z,68.00
2018-02-03T06:54:11.580Z,67.90
2018-02-03T06:56:39.144Z,68.20
2018-02-03T06:59:06.751Z,68.30
2018-02-03T07:01:35.077Z,68.00
2018-02-03T07:04:02.665Z,68.00
2018-02-03T07:06:30.233Z,68.20
2018-02-03T07:08:58.585Z,68.60
2018-02-03T07:11:26.144Z,68.60
2018-02-03T07:13:53.732Z,68.50
2018-02-03T07:16:21.288Z,68.50
2018-02-03T07:18:49.641Z,68.80
2018-02-03T07:21:17.340Z,68.70
2018-02-03T07:23:44.925Z,68.50
2018-02-03T07:26:12.490Z,68.70
2018-02-03T07:28:40.089Z,68.60
2018-02-03T07:31:07.666Z,68.80
2018-02-03T07:33:36.010Z,68.60
2018-02-03T07:36:03.602Z,68.60
2018-02-03T07:38:31.161Z,68.00
2018-02-03T07:40:59.521Z,68.10
2018-02-03T07:43:27.093Z,68.10
2018-02-03T07:45:54.697Z,68.00
2018-02-03T07:48:22.271Z,67.90
2018-02-03T07:50:49.865Z,67.90
2018-02-03T07:53:17.429Z,68.10
2018-02-03T07:55:45.042Z,68.00
2018-02-03T07:58:12.601Z,68.00
2018-02-03T08:00:40.193Z,67.90
2018-02-03T08:03:07.789Z,67.90
2018-02-03T08:05:35.381Z,68.00
2018-02-03T08:08:03.013Z,67.70
2018-02-03T08:10:30.629Z,67.80
2018-02-03T08:12:58.188Z,67.90
2018-02-03T08:15:25.777Z,67.50
2018-02-03T08:17:54.105Z,67.60
2018-02-03T08:20:21.688Z,67.70
2018-02-03T08:22:49.248Z,67.50
2018-02-03T08:25:16.834Z,67.60
2018-02-03T08:27:45.167Z,68.40
2018-02-03T08:30:12.772Z,67.70
2018-02-03T08:32:40.329Z,67.90
2018-02-03T08:35:07.888Z,67.70
2018-02-03T08:37:36.244Z,68.00
2018-02-03T08:40:04.589Z,68.10
2018-02-03T08:42:32.177Z,68.00
2018-02-03T08:44:59.762Z,67.50
2018-02-03T08:47:28.122Z,68.20
2018-02-03T08:49:56.013Z,68.10
2018-02-03T08:52:23.601Z,67.80
2018-02-03T08:54:51.169Z,67.70
2018-02-03T08:57:18.760Z,67.70
2018-02-03T08:59:46.322Z,68.10
2018-02-03T09:02:13.937Z,68.10
2018-02-03T09:04:41.494Z,67.80
2018-02-03T09:07:09.077Z,67.80
2018-02-03T09:09:36.647Z,67.80
2018-02-03T09:12:06.145Z,67.80
2018-02-03T09:14:33.714Z,67.00
2018-02-03T09:17:01.302Z,66.90
2018-02-03T09:19:29.628Z,67.10
2018-02-03T09:21:57.208Z,67.10
2018-02-03T09:24:24.783Z,66.80
2018-02-03T09:26:52.369Z,67.20
2018-02-03T09:29:19.929Z,67.40
2018-02-03T09:31:47.556Z,67.10
2018-02-03T09:34:15.084Z,67.30
2018-02-03T09:36:42.673Z,67.40
2018-02-03T09:39:10.239Z,67.00
2018-02-03T09:41:37.830Z,66.90
2018-02-03T09:44:05.388Z,67.00
2018-02-03T09:46:32.951Z,67.20
2018-02-03T09:49:00.537Z,67.50
2018-02-03T09:51:28.105Z,67.00
2018-02-03T09:53:55.689Z,66.50
2018-02-03T09:56:24.053Z,66.80
2018-02-03T09:58:51.623Z,66.70
2018-02-03T10:01:19.184Z,66.80
2018-02-03T10:03:46.775Z,66.70
2018-02-03T10:06:14.328Z,66.90
2018-02-03T10:08:41.905Z,67.10
2018-02-03T10:11:09.465Z,66.70
2018-02-03T10:13:37.053Z,65.90
2018-02-03T10:16:04.626Z,65.60
2018-02-03T10:18:32.210Z,65.40
2018-02-03T10:21:00.546Z,66.10
2018-02-03T10:23:28.128Z,66.00
2018-02-03T10:25:55.684Z,65.60
2018-02-03T10:28:23.271Z,64.50
2018-02-03T10:30:50.830Z,64.40
2018-02-03T10:33:18.446Z,64.90
2018-02-03T10:35:45.998Z,64.90
2018-02-03T10:38:13.584Z,65.80
2018-02-03T10:40:41.918Z,65.90
2018-02-03T10:43:09.507Z,65.80
2018-02-03T10:45:37.069Z,65.60
2018-02-03T10:48:04.652Z,65.40
2018-02-03T10:50:32.973Z,65.50
2018-02-03T10:53:00.552Z,65.50
2018-02-03T10:55:28.110Z,65.70
2018-02-03T10:57:55.669Z,65.80
2018-02-03T11:00:23.249Z,65.10
2018-02-03T11:02:50.808Z,65.40
2018-02-03T11:05:18.384Z,65.80
2018-02-03T11:07:46.714Z,65.80
2018-02-03T11:10:14.296Z,65.60
2018-02-03T11:12:41.856Z,65.60
2018-02-03T11:15:09.436Z,65.70
2018-02-03T11:17:37.760Z,65.40
2018-02-03T11:20:05.370Z,65.40
2018-02-03T11:22:32.933Z,65.00
2018-02-03T11:25:00.516Z,64.70
2018-02-03T11:27:28.088Z,64.60
2018-02-03T11:29:55.678Z,64.70
2018-02-03T11:32:24.098Z,64.90
2018-02-03T11:34:51.677Z,65.40
2018-02-03T11:37:19.232Z,65.00
2018-02-03T11:39:46.821Z,65.60
2018-02-03T11:42:14.389Z,65.30
2018-02-03T11:44:41.972Z,65.40
2018-02-03T11:47:10.347Z,65.80
2018-02-03T11:49:37.923Z,65.80
2018-02-03T11:52:05.486Z,65.80
2018-02-03T11:54:33.071Z,65.40
2018-02-03T11:57:00.764Z,65.90
2018-02-03T11:59:28.358Z,65.90
2018-02-03T12:01:55.921Z,66.20
2018-02-03T12:04:23.512Z,66.00
2018-02-03T12:06:51.079Z,65.50
2018-02-03T12:09:18.656Z,65.90
2018-02-03T12:11:46.213Z,66.20
2018-02-03T12:14:13.801Z,65.50
2018-02-03T12:16:41.378Z,66.00
2018-02-03T12:19:08.966Z,65.40
2018-02-03T12:21:36.533Z,65.40
2018-02-03T12:24:04.097Z,65.70
2018-02-03T12:26:31.680Z,65.30
2018-02-03T12:28:59.249Z,66.10
2018-02-03T12:31:27.601Z,66.00
2018-02-03T12:33:55.174Z,66.00
2018-02-03T12:36:22.770Z,66.10
2018-02-03T12:38:50.345Z,65.90
2018-02-03T12:41:17.925Z,66.00
2018-02-03T12:43:45.481Z,65.50
2018-02-03T12:46:13.077Z,65.80
2018-02-03T12:48:40.636Z,65.90
2018-02-03T12:51:08.227Z,64.80
2018-02-03T12:53:35.797Z,65.20
2018-02-03T12:56:03.388Z,65.50
2018-02-03T12:58:30.950Z,65.70
2018-02-03T13:00:58.537Z,64.80
2018-02-03T13:03:26.325Z,65.50
2018-02-03T13:05:53.907Z,65.30
2018-02-03T13:08:21.642Z,65.10
2018-02-03T13:10:49.224Z,64.80
2018-02-03T13:13:16.796Z,64.80
2018-02-03T13:15:44.380Z,65.40
2018-02-03T13:18:11.950Z,64.50
2018-02-03T13:20:39.527Z,65.10
2018-02-03T13:23:07.852Z,64.50
2018-02-03T13:25:35.433Z,64.30
2018-02-03T13:28:02.994Z,65.80
2018-02-03T13:30:30.585Z,65.10
2018-02-03T13:32:58.912Z,65.10
2018-02-03T13:35:26.509Z,65.10
2018-02-03T13:37:54.085Z,65.20
2018-02-03T13:40:21.648Z,64.70
2018-02-03T13:42:49.234Z,65.00
2018-02-03T13:45:16.797Z,64.80
2018-02-03T13:47:44.389Z,65.00
2018-02-03T13:50:11.953Z,64.70
2018-02-03T13:52:39.546Z,65.10
2018-02-03T13:55:07.104Z,65.10
2018-02-03T13:57:34.695Z,64.30
2018-02-03T14:00:02.265Z,64.60
2018-02-03T14:02:29.849Z,63.80
2018-02-03T14:04:57.420Z,65.30
2018-02-03T14:07:25.769Z,64.90
2018-02-03T14:09:53.334Z,64.80
2018-02-03T14:12:20.924Z,64.30
2018-02-03T14:14:48.488Z,64.80
2018-02-03T14:17:16.082Z,65.30
2018-02-03T14:19:43.654Z,65.10
2018-02-03T14:22:11.245Z,65.00
2018-02-03T14:24:45.254Z,65.10
2018-02-03T14:27:12.831Z,65.00
2018-02-03T14:29:40.408Z,65.50
2018-02-03T14:32:07.992Z,66.10
2018-02-03T14:34:35.557Z,65.60
2018-02-03T14:37:03.137Z,65.80
2018-02-03T14:39:30.706Z,65.90
2018-02-03T14:41:59.068Z,65.80
2018-02-03T14:44:26.639Z,65.80
2018-02-03T14:46:54.455Z,65.20
2018-02-03T14:49:22.026Z,65.60
2018-02-03T14:51:49.618Z,65.70
2018-02-03T14:54:17.185Z,65.00
2018-02-03T14:56:44.744Z,64.90
2018-02-03T14:59:13.099Z,66.10
2018-02-03T15:01:40.676Z,65.40
2018-02-03T15:04:09.074Z,65.40
2018-02-03T15:06:36.628Z,65.40
2018-02-03T15:09:04.222Z,65.70
2018-02-03T15:11:31.780Z,65.30
2018-02-03T15:13:59.369Z,65.70
2018-02-03T15:16:26.928Z,65.90
2018-02-03T15:18:54.514Z,65.80
2018-02-03T15:21:22.081Z,65.50
2018-02-03T15:23:50.437Z,65.30
2018-02-03T15:26:18.007Z,65.40
2018-02-03T15:28:45.595Z,66.10
2018-02-03T15:31:13.163Z,65.80
2018-02-03T15:33:40.749Z,65.60
2018-02-03T15:36:09.074Z,65.40
2018-02-03T15:38:36.657Z,65.40
2018-02-03T15:41:04.217Z,65.50
2018-02-03T15:43:31.806Z,65.80
2018-02-03T15:45:59.383Z,65.70
2018-02-03T15:48:26.977Z,65.90
2018-02-03T15:50:54.545Z,65.00
2018-02-03T15:53:22.124Z,65.60
2018-02-03T15:55:49.689Z,65.50
2018-02-03T15:58:17.276Z,65.90
2018-02-03T16:00:45.626Z,65.80
2018-02-03T16:03:13.174Z,65.90
2018-02-03T16:05:40.765Z,65.90
2018-02-03T16:08:08.329Z,65.90
2018-02-03T16:10:35.947Z,66.00
2018-02-03T16:13:03.501Z,65.20
2018-02-03T16:15:31.084Z,65.70
2018-02-03T16:17:58.655Z,65.90
2018-02-03T16:20:26.236Z,65.50
2018-02-03T16:22:53.797Z,65.20
2018-02-03T16:25:21.380Z,65.30
2018-02-03T16:27:48.940Z,65.60
2018-02-03T16:30:16.534Z,65.40
2018-02-03T16:32:44.149Z,65.60
2018-02-03T16:35:12.497Z,65.50
2018-02-03T16:37:40.056Z,65.50
2018-02-03T16:40:07.631Z,65.10
2018-02-03T16:42:35.195Z,65.30
2018-02-03T16:45:03.536Z,64.90
2018-02-03T16:47:31.095Z,64.80
2018-02-03T16:49:58.672Z,65.10
2018-02-03T16:52:26.239Z,64.60
2018-02-03T16:54:54.591Z,65.30
2018-02-03T16:57:22.153Z,65.20
2018-02-03T16:59:49.747Z,65.00
2018-02-03T17:02:17.313Z,64.80
2018-02-03T17:04:44.905Z,64.70
2018-02-03T17:07:12.470Z,65.00
2018-02-03T17:09:40.062Z,64.80
2018-02-03T17:12:07.615Z,64.50
2018-02-03T17:14:35.179Z,64.30
2018-02-03T17:17:02.756Z,64.60
2018-02-03T17:19:30.321Z,64.80
2018-02-03T17:21:57.900Z,65.10
2018-02-03T17:24:25.456Z,65.20
2018-02-03T17:26:53.038Z,65.40
2018-02-03T17:29:20.603Z,65.00
2018-02-03T17:31:48.185Z,65.30
2018-02-03T17:34:15.753Z,65.60
2018-02-03T17:36:48.964Z,65.70
2018-02-03T17:39:18.320Z,65.60
2018-02-03T17:41:45.908Z,65.50
2018-02-03T17:44:13.471Z,65.00
2018-02-03T17:46:46.796Z,65.20
2018-02-03T17:49:14.352Z,65.10
2018-02-03T17:51:41.943Z,64.90
2018-02-03T17:54:09.508Z,65.30
2018-02-03T17:56:42.784Z,65.60
2018-02-03T17:59:10.344Z,65.10
2018-02-03T18:01:37.928Z,65.10
2018-02-03T18:04:05.484Z,65.50
2018-02-03T18:06:38.800Z,65.70
2018-02-03T18:09:07.128Z,65.80
2018-02-03T18:11:34.727Z,65.70
2018-02-03T18:14:02.301Z,65.60
2018-02-03T18:16:29.885Z,65.40
2018-02-03T18:18:57.453Z,65.20
2018-02-03T18:21:25.046Z,65.10
2018-02-03T18:23:52.613Z,65.70
2018-02-03T18:26:20.200Z,66.20
2018-02-03T18:28:47.756Z,65.80
2018-02-03T18:31:16.151Z,66.00
2018-02-03T18:33:44.457Z,66.10
2018-02-03T18:36:12.040Z,66.00
2018-02-03T18:38:39.605Z,66.30
2018-02-03T18:41:07.190Z,66.20
2018-02-03T18:43:35.520Z,66.00
2018-02-03T18:46:03.109Z,66.00
2018-02-03T18:48:30.669Z,66.20
2018-02-03T18:50:58.260Z,66.30
2018-02-03T18:53:25.824Z,65.90
2018-02-03T18:55:53.388Z,65.50
2018-02-03T18:58:20.963Z,65.00
2018-02-03T19:00:48.516Z,66.00
2018-02-03T19:03:16.097Z,66.00
2018-02-03T19:05:43.677Z,66.30
2018-02-03T19:08:11.265Z,65.80
2018-02-03T19:10:39.596Z,66.00
2018-02-03T19:13:07.188Z,66.00
2018-02-03T19:15:35.555Z,66.60
2018-02-03T19:18:03.910Z,67.20
2018-02-03T19:20:31.481Z,67.10
2018-02-03T19:22:59.065Z,67.80
2018-02-03T19:25:26.627Z,67.30
2018-02-03T19:27:55.022Z,67.20
2018-02-03T19:30:22.647Z,67.10
2018-02-03T19:32:50.244Z,66.90
2018-02-03T19:35:17.854Z,66.80
2018-02-03T19:37:45.444Z,67.10
2018-02-03T19:40:13.788Z,66.80
2018-02-03T19:42:41.491Z,66.80
2018-02-03T19:45:09.060Z,66.90
2018-02-03T19:47:36.647Z,67.30
2018-02-03T19:50:04.256Z,67.50
2018-02-03T19:52:32.657Z,67.60
2018-02-03T19:55:00.212Z,67.60
2018-02-03T19:57:27.909Z,67.60
2018-02-03T19:59:56.224Z,67.50
2018-02-03T20:02:24.548Z,67.40
2018-02-03T20:04:52.179Z,67.40
2018-02-03T20:07:19.746Z,68.00
2018-02-03T20:09:47.327Z,67.70
2018-02-03T20:12:14.940Z,67.40
2018-02-03T20:14:42.575Z,67.20
2018-02-03T20:17:10.137Z,67.20
2018-02-03T20:19:37.724Z,67.60
2018-02-03T20:22:06.102Z,67.60
2018-02-03T20:24:34.509Z,68.00
2018-02-03T20:27:02.124Z,67.90
2018-02-03T20:29:29.759Z,68.20
2018-02-03T20:31:57.317Z,67.80
2018-02-03T20:34:24.964Z,67.50
2018-02-03T20:36:52.533Z,67.70
2018-02-03T20:39:20.159Z,67.60
2018-02-03T20:41:47.768Z,67.30
2018-02-03T20:44:15.408Z,67.70
2018-02-03T20:46:42.972Z,67.30
2018-02-03T20:49:10.594Z,67.60
2018-02-03T20:51:38.187Z,67.90
2018-02-03T20:54:05.768Z,68.00
2018-02-03T20:56:33.333Z,68.20
2018-02-03T20:59:00.922Z,67.90
2018-02-03T21:01:29.249Z,67.70
2018-02-03T21:03:56.888Z,67.70
2018-02-03T21:06:24.512Z,67.90
2018-02-03T21:08:52.100Z,68.30
2018-02-03T21:11:19.703Z,68.50
2018-02-03T21:13:47.280Z,68.30
2018-02-03T21:16:15.662Z,68.20
2018-02-03T21:18:43.995Z,67.80
2018-02-03T21:21:11.583Z,67.80
2018-02-03T21:23:39.178Z,68.00
2018-02-03T21:26:07.000Z,68.40
2018-02-03T21:28:34.616Z,68.00
2018-02-03T21:31:02.213Z,68.70
2018-02-03T21:33:29.777Z,68.90
2018-02-03T21:35:57.411Z,69.20
2018-02-03T21:38:24.961Z,68.30
2018-02-03T21:40:52.554Z,68.20
2018-02-03T21:43:20.168Z,69.40
2018-02-03T21:45:47.804Z,69.10
2018-02-03T21:48:15.360Z,68.70
2018-02-03T21:50:43.708Z,68.90
2018-02-03T21:53:11.273Z,68.70
2018-02-03T21:55:38.865Z,68.80
2018-02-03T21:58:06.437Z,68.80
2018-02-03T22:00:34.034Z,69.30
2018-02-03T22:03:01.647Z,69.20
2018-02-03T22:05:29.228Z,68.90
2018-02-03T22:07:56.793Z,68.70
2018-02-03T22:10:24.431Z,68.40
2018-02-03T22:12:52.049Z,68.60
2018-02-03T22:15:19.693Z,69.30
2018-02-03T22:17:47.253Z,69.10
2018-02-03T22:20:14.845Z,69.10
2018-02-03T22:22:43.181Z,69.10
2018-02-03T22:25:10.822Z,69.10
2018-02-03T22:27:38.389Z,68.70
2018-02-03T22:30:06.020Z,69.10
2018-02-03T22:32:33.576Z,69.00
2018-02-03T22:35:01.169Z,68.90
2018-02-03T22:37:28.761Z,69.10
2018-02-03T22:39:56.331Z,69.30
2018-02-03T22:42:23.973Z,69.50
2018-02-03T22:44:51.532Z,69.60
2018-02-03T22:47:19.117Z,69.50
2018-02-03T22:49:46.681Z,69.30
2018-02-03T22:52:15.037Z,69.40
2018-02-03T22:54:42.601Z,69.30
2018-02-03T22:57:10.239Z,69.40
2018-02-03T22:59:37.797Z,69.10
2018-02-03T23:02:05.393Z,69.70
2018-02-03T23:04:32.964Z,69.70
2018-02-03T23:07:01.322Z,70.50
2018-02-03T23:09:29.656Z,70.10
2018-02-03T23:11:57.251Z,70.10
2018-02-03T23:14:24.816Z,70.60
2018-02-03T23:16:52.423Z,70.50
2018-02-03T23:19:19.988Z,70.20
2018-02-03T23:21:47.573Z,70.50
2018-02-03T23:24:15.181Z,70.90
2018-02-03T23:26:42.757Z,71.50
2018-02-03T23:29:10.320Z,70.90
2018-02-03T23:31:37.909Z,71.00
2018-02-03T23:34:05.477Z,70.10
2018-02-03T23:36:33.936Z,70.10
2018-02-03T23:39:01.505Z,70.50
2018-02-03T23:41:29.068Z,70.30
2018-02-03T23:43:56.654Z,70.40
2018-02-03T23:46:24.991Z,70.30
2018-02-03T23:48:52.576Z,70.30
2018-02-03T23:51:20.136Z,70.10
2018-02-03T23:53:47.712Z,70.50
2018-02-03T23:56:16.045Z,70.70
2018-02-03T23:58:43.645Z,70.70
